createdAt,value
2022-09-28T00:00:18.346Z,97497.06
2022-09-28T00:01:17.756Z,97495.70
2022-09-28T00:01:52.006Z,97498.11
2022-09-28T00:02:26.848Z,97498.15
2022-09-28T00:03:00.531Z,97494.71
2022-09-28T00:03:33.922Z,97497.83
2022-09-28T00:04:07.225Z,97499.48
2022-09-28T00:04:40.411Z,97495.95
2022-09-28T00:05:13.570Z,97502.17
2022-09-28T00:05:46.641Z,97498.27
2022-09-28T00:06:22.311Z,97497.96
2022-09-28T00:06:55.428Z,97499.90
2022-09-28T00:07:29.484Z,97498.61
2022-09-28T00:08:02.652Z,97496.98
2022-09-28T00:08:36.469Z,97499.09
2022-09-28T00:09:09.630Z,97498.86
2022-09-28T00:09:43.287Z,97497.92
2022-09-28T00:10:16.585Z,97496.30
2022-09-28T00:10:56.226Z,97492.03
2022-09-28T00:11:29.540Z,97498.83
2022-09-28T00:12:02.818Z,97497.26
2022-09-28T00:12:35.952Z,97497.13
2022-09-28T00:13:09.957Z,97498.90
2022-09-28T00:13:44.171Z,97500.00
2022-09-28T00:14:17.683Z,97499.52
2022-09-28T00:14:51.470Z,97498.48
2022-09-28T00:15:25.023Z,97499.02
2022-09-28T00:16:07.509Z,97501.60
2022-09-28T00:16:44.125Z,97504.64
2022-09-28T00:17:17.357Z,97501.02
2022-09-28T00:17:50.783Z,97503.75
2022-09-28T00:18:24.366Z,97503.19
2022-09-28T00:18:57.878Z,97501.77
2022-09-28T00:19:30.882Z,97502.61
2022-09-28T00:20:05.698Z,97500.62
2022-09-28T00:20:38.705Z,97500.88
2022-09-28T00:21:15.076Z,97501.39
2022-09-28T00:21:48.304Z,97502.40
2022-09-28T00:22:21.406Z,97502.09
2022-09-28T00:22:54.442Z,97500.88
2022-09-28T00:23:27.910Z,97499.30
2022-09-28T00:24:24.029Z,97498.98
2022-09-28T00:24:59.829Z,97496.75
2022-09-28T00:25:33.162Z,97500.21
2022-09-28T00:26:06.441Z,97495.19
2022-09-28T00:26:47.022Z,97494.77
2022-09-28T00:27:20.091Z,97496.52
2022-09-28T00:27:53.211Z,97495.77
2022-09-28T00:28:26.219Z,97495.77
2022-09-28T00:29:02.041Z,97496.76
2022-09-28T00:29:37.507Z,97494.35
2022-09-28T00:30:10.789Z,97495.95
2022-09-28T00:30:43.876Z,97493.64
2022-09-28T00:31:20.431Z,97497.30
2022-09-28T00:32:03.210Z,97497.02
2022-09-28T00:32:36.761Z,97497.52
2022-09-28T00:33:10.267Z,97494.45
2022-09-28T00:33:43.534Z,97497.69
2022-09-28T00:34:17.327Z,97497.48
2022-09-28T00:34:52.045Z,97496.02
2022-09-28T00:35:25.620Z,97497.80
2022-09-28T00:35:59.758Z,97497.39
2022-09-28T00:36:44.366Z,97497.99
2022-09-28T00:37:27.004Z,97497.08
2022-09-28T00:38:02.448Z,97497.97
2022-09-28T00:38:44.701Z,97499.53
2022-09-28T00:39:19.215Z,97500.14
2022-09-28T00:39:53.318Z,97498.45
2022-09-28T00:40:26.884Z,97498.02
2022-09-28T00:41:06.218Z,97500.05
2022-09-28T00:41:40.223Z,97500.79
2022-09-28T00:42:27.765Z,97503.10
2022-09-28T00:43:21.091Z,97500.14
2022-09-28T00:44:15.371Z,97503.17
2022-09-28T00:44:54.385Z,97503.27
2022-09-28T00:45:28.148Z,97503.67
2022-09-28T00:46:06.896Z,97503.30
2022-09-28T00:46:40.983Z,97506.38
2022-09-28T00:47:22.562Z,97504.31
2022-09-28T00:47:59.708Z,97506.42
2022-09-28T00:48:37.219Z,97503.55
2022-09-28T00:49:26.324Z,97506.52
2022-09-28T00:50:11.906Z,97502.85
2022-09-28T00:50:46.097Z,97504.93
2022-09-28T00:51:19.637Z,97503.08
2022-09-28T00:51:53.470Z,97502.88
2022-09-28T00:52:36.253Z,97505.25
2022-09-28T00:53:19.267Z,97503.33
2022-09-28T00:53:57.375Z,97504.59
2022-09-28T00:54:31.285Z,97504.84
2022-09-28T00:55:14.000Z,97502.91
2022-09-28T00:55:55.904Z,97505.82
2022-09-28T00:56:33.326Z,97504.77
2022-09-28T00:57:07.539Z,97505.39
2022-09-28T00:57:45.270Z,97501.68
2022-09-28T00:58:27.731Z,97504.97
2022-09-28T00:59:05.122Z,97501.95
2022-09-28T00:59:42.941Z,97503.11
2022-09-28T01:00:17.415Z,97501.45
2022-09-28T01:00:51.586Z,97501.25
2022-09-28T01:01:25.763Z,97500.56
2022-09-28T01:02:03.350Z,97500.77
2022-09-28T01:02:41.909Z,97501.22
2022-09-28T01:03:17.279Z,97501.75
2022-09-28T01:03:54.936Z,97500.69
2022-09-28T01:04:30.616Z,97503.77
2022-09-28T01:05:07.248Z,97501.83
2022-09-28T01:05:41.963Z,97508.34
2022-09-28T01:06:24.136Z,97507.22
2022-09-28T01:06:59.387Z,97506.98
2022-09-28T01:07:33.976Z,97506.84
2022-09-28T01:08:09.238Z,97505.67
2022-09-28T01:08:44.924Z,97500.54
2022-09-28T01:09:19.837Z,97504.38
2022-09-28T01:09:54.424Z,97503.35
2022-09-28T01:10:29.343Z,97500.02
2022-09-28T01:11:02.552Z,97500.19
2022-09-28T01:11:39.052Z,97501.34
2022-09-28T01:12:12.446Z,97501.90
2022-09-28T01:12:45.773Z,97502.80
2022-09-28T01:13:21.903Z,97501.10
2022-09-28T01:13:58.024Z,97502.58
2022-09-28T01:14:31.629Z,97503.27
2022-09-28T01:15:06.446Z,97503.80
2022-09-28T01:16:08.422Z,97502.71
2022-09-28T01:17:21.157Z,97503.10
2022-09-28T01:18:03.350Z,97506.77
2022-09-28T01:18:43.917Z,97508.45
2022-09-28T01:19:20.104Z,97508.23
2022-09-28T01:19:56.311Z,97509.45
2022-09-28T01:20:44.560Z,97509.59
2022-09-28T01:21:21.046Z,97514.35
2022-09-28T01:22:08.084Z,97510.14
2022-09-28T01:22:54.013Z,97513.50
2022-09-28T01:24:00.342Z,97512.90
2022-09-28T01:24:46.213Z,97514.36
2022-09-28T01:25:37.500Z,97515.02
2022-09-28T01:26:26.142Z,97514.69
2022-09-28T01:27:11.261Z,97513.01
2022-09-28T01:28:14.511Z,97512.23
2022-09-28T01:28:51.152Z,97510.73
2022-09-28T01:29:39.576Z,97510.46
2022-09-28T01:30:16.658Z,97511.41
2022-09-28T01:30:58.741Z,97515.05
2022-09-28T01:31:35.507Z,97515.06
2022-09-28T01:32:23.561Z,97514.65
2022-09-28T01:33:01.623Z,97516.50
2022-09-28T01:33:42.030Z,97514.84
2022-09-28T01:34:31.091Z,97513.67
2022-09-28T01:35:07.774Z,97513.71
2022-09-28T01:35:57.188Z,97512.37
2022-09-28T01:36:37.104Z,97513.08
2022-09-28T01:37:13.728Z,97514.13
2022-09-28T01:38:07.721Z,97517.23
2022-09-28T01:38:46.731Z,97513.08
2022-09-28T01:39:28.942Z,97516.34
2022-09-28T01:40:04.366Z,97516.95
2022-09-28T01:40:38.111Z,97515.02
2022-09-28T01:41:13.651Z,97512.14
2022-09-28T01:41:51.712Z,97513.73
2022-09-28T01:42:30.276Z,97513.80
2022-09-28T01:43:11.760Z,97514.09
2022-09-28T01:43:54.487Z,97513.23
2022-09-28T01:44:30.602Z,97511.39
2022-09-28T01:45:09.992Z,97514.13
2022-09-28T01:45:43.460Z,97516.03
2022-09-28T01:46:38.489Z,97508.54
2022-09-28T01:47:16.866Z,97511.05
2022-09-28T01:47:51.441Z,97508.86
2022-09-28T01:48:33.547Z,97511.10
2022-09-28T01:49:20.000Z,97510.44
2022-09-28T01:50:05.357Z,97506.83
2022-09-28T01:50:42.361Z,97509.56
2022-09-28T01:51:31.432Z,97508.23
2022-09-28T01:52:34.599Z,97507.50
2022-09-28T01:53:17.234Z,97507.35
2022-09-28T01:53:55.541Z,97510.23
2022-09-28T01:54:42.318Z,97510.40
2022-09-28T01:55:26.302Z,97512.34
2022-09-28T01:56:09.860Z,97510.60
2022-09-28T01:57:06.656Z,97513.92
2022-09-28T01:57:48.184Z,97509.64
2022-09-28T01:58:49.704Z,97511.83
2022-09-28T01:59:25.281Z,97511.22
2022-09-28T02:00:09.056Z,97510.18
2022-09-28T02:00:47.439Z,97508.75
2022-09-28T02:01:40.532Z,97507.41
2022-09-28T02:02:18.950Z,97506.86
2022-09-28T02:03:38.077Z,97507.27
2022-09-28T02:04:19.837Z,97511.73
2022-09-28T02:04:59.903Z,97513.17
2022-09-28T02:05:40.228Z,97513.21
2022-09-28T02:06:20.471Z,97512.05
2022-09-28T02:07:23.033Z,97511.20
2022-09-28T02:08:03.124Z,97511.23
2022-09-28T02:09:14.501Z,97511.06
2022-09-28T02:09:56.329Z,97511.38
2022-09-28T02:10:43.991Z,97511.79
2022-09-28T02:11:19.712Z,97512.02
2022-09-28T02:12:01.273Z,97512.39
2022-09-28T02:13:00.197Z,97512.05
2022-09-28T02:13:41.268Z,97513.25
2022-09-28T02:14:17.852Z,97516.00
2022-09-28T02:14:58.897Z,97514.91
2022-09-28T02:15:50.977Z,97518.70
2022-09-28T02:16:40.335Z,97517.38
2022-09-28T02:17:14.107Z,97517.15
2022-09-28T02:17:47.187Z,97520.88
2022-09-28T02:18:20.711Z,97521.54
2022-09-28T02:18:53.802Z,97521.65
2022-09-28T02:19:29.048Z,97521.02
2022-09-28T02:20:02.806Z,97524.21
2022-09-28T02:20:39.730Z,97523.16
2022-09-28T02:21:23.965Z,97520.89
2022-09-28T02:22:03.768Z,97525.05
2022-09-28T02:23:01.043Z,97524.89
2022-09-28T02:23:37.542Z,97529.48
2022-09-28T02:24:21.220Z,97527.36
2022-09-28T02:25:29.657Z,97525.17
2022-09-28T02:26:09.274Z,97525.13
2022-09-28T02:26:46.355Z,97523.61
2022-09-28T02:27:30.471Z,97522.70
2022-09-28T02:28:10.895Z,97524.35
2022-09-28T02:28:44.091Z,97532.58
2022-09-28T02:29:17.733Z,97526.63
2022-09-28T02:29:50.902Z,97526.79
2022-09-28T02:30:24.491Z,97527.25
2022-09-28T02:30:57.641Z,97532.81
2022-09-28T02:31:31.930Z,97530.88
2022-09-28T02:32:05.167Z,97529.81
2022-09-28T02:32:43.530Z,97531.48
2022-09-28T02:33:46.520Z,97531.73
2022-09-28T02:34:19.657Z,97532.35
2022-09-28T02:34:52.993Z,97537.21
2022-09-28T02:35:26.403Z,97538.42
2022-09-28T02:36:01.238Z,97540.71
2022-09-28T02:36:35.358Z,97542.25
2022-09-28T02:37:08.544Z,97542.64
2022-09-28T02:37:42.521Z,97545.75
2022-09-28T02:38:15.729Z,97547.09
2022-09-28T02:38:49.134Z,97551.40
2022-09-28T02:39:22.917Z,97552.61
2022-09-28T02:39:56.214Z,97551.81
2022-09-28T02:40:32.493Z,97556.30
2022-09-28T02:41:29.981Z,97556.46
2022-09-28T02:42:20.485Z,97559.02
2022-09-28T02:43:09.006Z,97556.41
2022-09-28T02:44:20.805Z,97556.08
2022-09-28T02:45:19.286Z,97564.06
2022-09-28T02:46:27.034Z,97565.30
2022-09-28T02:47:05.165Z,97565.73
2022-09-28T02:48:00.310Z,97572.26
2022-09-28T02:49:17.258Z,97573.41
2022-09-28T02:50:23.261Z,97574.23
2022-09-28T02:51:31.121Z,97572.47
2022-09-28T02:52:38.598Z,97569.21
2022-09-28T02:53:36.650Z,97570.85
2022-09-28T02:54:22.563Z,97574.02
2022-09-28T02:55:11.854Z,97575.27
2022-09-28T02:56:16.088Z,97574.13
2022-09-28T02:57:04.639Z,97574.30
2022-09-28T02:58:04.554Z,97572.50
2022-09-28T02:58:59.370Z,97568.34
2022-09-28T03:00:02.344Z,97564.33
2022-09-28T03:00:45.954Z,97562.48
2022-09-28T03:01:34.834Z,97563.55
2022-09-28T03:02:40.366Z,97560.86
2022-09-28T03:03:24.959Z,97564.05
2022-09-28T03:04:10.577Z,97566.50
2022-09-28T03:04:53.980Z,97562.18
2022-09-28T03:05:53.153Z,97561.29
2022-09-28T03:06:59.487Z,97557.94
2022-09-28T03:07:50.469Z,97552.83
2022-09-28T03:08:26.665Z,97557.70
2022-09-28T03:09:42.121Z,97557.99
2022-09-28T03:10:43.599Z,97561.27
2022-09-28T03:11:38.252Z,97562.23
2022-09-28T03:12:16.235Z,97558.77
2022-09-28T03:12:51.047Z,97555.34
2022-09-28T03:13:25.889Z,97555.24
2022-09-28T03:14:00.097Z,97554.75
2022-09-28T03:14:33.102Z,97556.67
2022-09-28T03:15:09.056Z,97554.84
2022-09-28T03:15:46.440Z,97556.02
2022-09-28T03:16:21.646Z,97557.91
2022-09-28T03:16:54.790Z,97557.94
2022-09-28T03:17:28.011Z,97557.21
2022-09-28T03:18:02.089Z,97556.43
2022-09-28T03:18:35.285Z,97555.25
2022-09-28T03:19:08.380Z,97554.06
2022-09-28T03:19:42.040Z,97553.71
2022-09-28T03:20:15.389Z,97554.89
2022-09-28T03:20:50.080Z,97554.80
2022-09-28T03:21:23.174Z,97556.02
2022-09-28T03:21:56.644Z,97553.24
2022-09-28T03:22:29.673Z,97553.96
2022-09-28T03:23:56.424Z,97553.77
2022-09-28T03:24:29.604Z,97551.01
2022-09-28T03:25:02.870Z,97552.91
2022-09-28T03:25:36.059Z,97551.93
2022-09-28T03:26:14.794Z,97546.26
2022-09-28T03:26:47.868Z,97548.48
2022-09-28T03:27:21.004Z,97551.27
2022-09-28T03:27:54.470Z,97549.97
2022-09-28T03:28:28.403Z,97548.44
2022-09-28T03:29:01.635Z,97548.10
2022-09-28T03:29:34.847Z,97549.34
2022-09-28T03:30:08.854Z,97546.18
2022-09-28T03:30:43.080Z,97546.14
2022-09-28T03:31:16.374Z,97546.26
2022-09-28T03:31:49.962Z,97543.63
2022-09-28T03:32:23.324Z,97547.95
2022-09-28T03:33:00.673Z,97543.90
2022-09-28T03:33:34.002Z,97546.92
2022-09-28T03:34:07.624Z,97545.39
2022-09-28T03:34:40.742Z,97545.25
2022-09-28T03:35:14.002Z,97542.78
2022-09-28T03:35:49.034Z,97542.83
2022-09-28T03:36:22.840Z,97539.36
2022-09-28T03:36:56.023Z,97540.25
2022-09-28T03:37:29.218Z,97540.27
2022-09-28T03:38:02.380Z,97539.17
2022-09-28T03:38:35.471Z,97535.67
2022-09-28T03:39:08.465Z,97531.38
2022-09-28T03:39:41.773Z,97529.02
2022-09-28T03:40:15.089Z,97529.02
2022-09-28T03:41:00.310Z,97527.31
2022-09-28T03:41:33.599Z,97527.24
2022-09-28T03:42:06.817Z,97528.27
2022-09-28T03:42:40.444Z,97527.52
2022-09-28T03:43:13.476Z,97531.86
2022-09-28T03:43:46.808Z,97532.85
2022-09-28T03:44:20.181Z,97534.93
2022-09-28T03:44:53.393Z,97539.49
2022-09-28T03:45:26.772Z,97541.69
2022-09-28T03:46:01.839Z,97546.70
2022-09-28T03:46:35.396Z,97549.89
2022-09-28T03:47:09.375Z,97550.10
2022-09-28T03:47:49.520Z,97549.33
2022-09-28T03:48:32.168Z,97547.42
2022-09-28T03:49:06.074Z,97544.48
2022-09-28T03:49:39.192Z,97546.05
2022-09-28T03:50:12.308Z,97550.58
2022-09-28T03:50:45.465Z,97547.65
2022-09-28T03:51:18.474Z,97551.31
2022-09-28T03:51:51.508Z,97552.79
2022-09-28T03:52:24.543Z,97557.42
2022-09-28T03:53:02.626Z,97562.34
2022-09-28T03:53:37.106Z,97570.95
2022-09-28T03:54:10.199Z,97574.91
2022-09-28T03:54:48.309Z,97574.34
2022-09-28T03:55:22.335Z,97575.02
2022-09-28T03:55:56.464Z,97575.88
2022-09-28T03:56:30.384Z,97576.92
2022-09-28T03:57:03.751Z,97576.60
2022-09-28T03:57:37.482Z,97576.33
2022-09-28T03:58:10.495Z,97576.05
2022-09-28T03:58:43.734Z,97575.95
2022-09-28T03:59:17.178Z,97572.85
2022-09-28T03:59:50.347Z,97575.16
2022-09-28T04:00:24.150Z,97572.98
2022-09-28T04:01:12.938Z,97572.14
2022-09-28T04:01:50.435Z,97569.55
2022-09-28T04:02:23.658Z,97571.90
2022-09-28T04:02:57.069Z,97567.61
2022-09-28T04:03:30.286Z,97569.09
2022-09-28T04:04:03.363Z,97569.20
2022-09-28T04:04:36.475Z,97570.02
2022-09-28T04:05:09.863Z,97566.08
2022-09-28T04:05:51.060Z,97563.49
2022-09-28T04:06:25.879Z,97562.30
2022-09-28T04:07:00.023Z,97562.64
2022-09-28T04:07:33.290Z,97559.70
2022-09-28T04:08:06.355Z,97563.63
2022-09-28T04:08:39.554Z,97564.89
2022-09-28T04:09:12.910Z,97562.94
2022-09-28T04:09:46.083Z,97559.52
2022-09-28T04:10:19.302Z,97562.73
2022-09-28T04:10:52.927Z,97562.89
2022-09-28T04:11:26.510Z,97561.89
2022-09-28T04:12:04.290Z,97563.41
2022-09-28T04:12:37.797Z,97560.79
2022-09-28T04:13:11.479Z,97563.00
2022-09-28T04:13:48.032Z,97564.77
2022-09-28T04:14:21.135Z,97567.42
2022-09-28T04:14:54.321Z,97566.36
2022-09-28T04:15:27.370Z,97568.55
2022-09-28T04:16:01.808Z,97568.90
2022-09-28T04:16:35.153Z,97569.88
2022-09-28T04:17:08.294Z,97573.83
2022-09-28T04:17:41.496Z,97571.40
2022-09-28T04:18:14.534Z,97573.30
2022-09-28T04:18:48.558Z,97572.30
2022-09-28T04:19:22.487Z,97572.82
2022-09-28T04:19:55.652Z,97573.66
2022-09-28T04:20:28.895Z,97572.02
2022-09-28T04:21:11.876Z,97570.90
2022-09-28T04:21:45.153Z,97567.95
2022-09-28T04:22:18.232Z,97565.67
2022-09-28T04:22:51.359Z,97567.47
2022-09-28T04:23:25.265Z,97566.25
2022-09-28T04:23:59.618Z,97565.57
2022-09-28T04:24:33.623Z,97565.33
2022-09-28T04:25:07.620Z,97563.60
2022-09-28T04:25:40.991Z,97568.01
2022-09-28T04:26:17.589Z,97562.31
2022-09-28T04:26:50.672Z,97564.58
2022-09-28T04:27:42.474Z,97565.08
2022-09-28T04:28:34.684Z,97567.12
2022-09-28T04:29:19.697Z,97569.11
2022-09-28T04:29:53.008Z,97567.53
2022-09-28T04:30:25.955Z,97569.67
2022-09-28T04:30:59.011Z,97570.79
2022-09-28T04:31:39.873Z,97569.83
2022-09-28T04:32:12.976Z,97569.41
2022-09-28T04:32:49.611Z,97568.64
2022-09-28T04:33:22.933Z,97572.69
2022-09-28T04:33:58.823Z,97570.85
2022-09-28T04:34:36.565Z,97568.83
2022-09-28T04:35:14.876Z,97573.02
2022-09-28T04:35:48.037Z,97574.73
2022-09-28T04:36:21.195Z,97574.19
2022-09-28T04:36:54.253Z,97576.52
2022-09-28T04:37:27.275Z,97576.67
2022-09-28T04:38:00.343Z,97576.27
2022-09-28T04:38:51.919Z,97576.02
2022-09-28T04:39:26.129Z,97573.70
2022-09-28T04:39:59.157Z,97571.70
2022-09-28T04:40:32.666Z,97569.09
2022-09-28T04:41:06.367Z,97570.99
2022-09-28T04:41:39.469Z,97573.09
2022-09-28T04:42:12.566Z,97572.45
2022-09-28T04:42:45.782Z,97569.62
2022-09-28T04:43:18.731Z,97575.36
2022-09-28T04:43:51.906Z,97575.63
2022-09-28T04:44:25.101Z,97575.77
2022-09-28T04:44:59.139Z,97576.61
2022-09-28T04:45:32.374Z,97579.33
2022-09-28T04:46:06.682Z,97577.71
2022-09-28T04:46:39.782Z,97580.23
2022-09-28T04:47:13.039Z,97578.95
2022-09-28T04:47:46.271Z,97581.05
2022-09-28T04:48:19.459Z,97582.84
2022-09-28T04:48:52.647Z,97581.25
2022-09-28T04:49:25.775Z,97580.32
2022-09-28T04:49:58.821Z,97578.73
2022-09-28T04:50:31.997Z,97579.02
2022-09-28T04:51:05.292Z,97581.09
2022-09-28T04:51:38.542Z,97581.99
2022-09-28T04:52:17.885Z,97583.48
2022-09-28T04:52:51.694Z,97578.87
2022-09-28T04:53:27.257Z,97582.23
2022-09-28T04:54:00.402Z,97582.80
2022-09-28T04:54:33.968Z,97579.81
2022-09-28T04:55:07.497Z,97579.81
2022-09-28T04:55:40.697Z,97580.17
2022-09-28T04:56:15.844Z,97582.45
2022-09-28T04:56:49.377Z,97579.28
2022-09-28T04:57:22.571Z,97581.30
2022-09-28T04:57:56.173Z,97581.90
2022-09-28T04:58:29.698Z,97578.05
2022-09-28T04:59:03.209Z,97581.05
2022-09-28T04:59:37.801Z,97580.48
2022-09-28T05:00:12.021Z,97580.52
2022-09-28T05:00:45.196Z,97583.12
2022-09-28T05:01:20.215Z,97581.19
2022-09-28T05:01:54.478Z,97581.78
2022-09-28T05:02:28.103Z,97583.27
2022-09-28T05:03:01.736Z,97581.77
2022-09-28T05:03:34.869Z,97583.14
2022-09-28T05:04:07.969Z,97584.04
2022-09-28T05:04:41.459Z,97585.59
2022-09-28T05:05:14.936Z,97584.10
2022-09-28T05:05:49.222Z,97584.59
2022-09-28T05:06:23.225Z,97584.33
2022-09-28T05:06:56.287Z,97585.77
2022-09-28T05:07:29.371Z,97590.09
2022-09-28T05:08:02.520Z,97591.14
2022-09-28T05:08:35.991Z,97586.69
2022-09-28T05:09:09.802Z,97587.70
2022-09-28T05:09:42.947Z,97588.20
2022-09-28T05:10:16.101Z,97585.83
2022-09-28T05:10:49.503Z,97584.21
2022-09-28T05:11:23.136Z,97587.67
2022-09-28T05:11:56.297Z,97586.94
2022-09-28T05:12:29.352Z,97586.96
2022-09-28T05:13:02.808Z,97588.61
2022-09-28T05:13:45.630Z,97584.70
2022-09-28T05:14:22.255Z,97587.85
2022-09-28T05:14:56.758Z,97583.14
2022-09-28T05:15:31.276Z,97585.12
2022-09-28T05:16:05.652Z,97583.92
2022-09-28T05:16:39.273Z,97585.73
2022-09-28T05:17:12.471Z,97579.55
2022-09-28T05:17:45.617Z,97582.11
2022-09-28T05:18:18.761Z,97579.41
2022-09-28T05:18:58.406Z,97579.49
2022-09-28T05:19:31.612Z,97576.13
2022-09-28T05:20:05.511Z,97578.27
2022-09-28T05:20:42.399Z,97576.83
2022-09-28T05:21:16.151Z,97583.07
2022-09-28T05:21:49.907Z,97584.95
2022-09-28T05:22:23.038Z,97586.77
2022-09-28T05:22:56.476Z,97588.42
2022-09-28T05:23:29.789Z,97583.38
2022-09-28T05:24:07.619Z,97586.77
2022-09-28T05:24:41.911Z,97588.39
2022-09-28T05:25:14.956Z,97587.34
2022-09-28T05:25:48.134Z,97591.41
2022-09-28T05:26:21.823Z,97591.60
2022-09-28T05:26:54.998Z,97590.61
2022-09-28T05:27:28.174Z,97587.10
2022-09-28T05:28:03.751Z,97586.97
2022-09-28T05:28:36.947Z,97587.57
2022-09-28T05:29:10.317Z,97589.35
2022-09-28T05:29:43.575Z,97586.76
2022-09-28T05:30:16.706Z,97587.92
2022-09-28T05:30:50.220Z,97588.97
2022-09-28T05:31:23.696Z,97587.45
2022-09-28T05:31:56.856Z,97587.83
2022-09-28T05:32:30.244Z,97588.13
2022-09-28T05:33:04.346Z,97584.34
2022-09-28T05:33:37.843Z,97586.65
2022-09-28T05:34:10.994Z,97586.69
2022-09-28T05:34:44.243Z,97585.48
2022-09-28T05:35:17.592Z,97586.45
2022-09-28T05:35:54.451Z,97587.16
2022-09-28T05:36:30.276Z,97586.40
2022-09-28T05:37:03.924Z,97585.29
2022-09-28T05:37:41.409Z,97585.80
2022-09-28T05:38:14.588Z,97587.33
2022-09-28T05:38:47.845Z,97585.14
2022-09-28T05:39:20.984Z,97584.00
2022-09-28T05:39:54.205Z,97583.70
2022-09-28T05:40:27.236Z,97583.77
2022-09-28T05:41:05.723Z,97587.04
2022-09-28T05:41:39.908Z,97584.93
2022-09-28T05:42:13.060Z,97585.67
2022-09-28T05:42:46.199Z,97586.59
2022-09-28T05:43:19.484Z,97588.52
2022-09-28T05:43:52.920Z,97586.89
2022-09-28T05:44:26.262Z,97588.30
2022-09-28T05:44:59.367Z,97591.30
2022-09-28T05:45:32.592Z,97590.63
2022-09-28T05:46:06.777Z,97593.33
2022-09-28T05:46:40.285Z,97594.21
2022-09-28T05:47:13.422Z,97592.90
2022-09-28T05:47:46.546Z,97595.35
2022-09-28T05:48:19.717Z,97592.64
2022-09-28T05:48:52.869Z,97593.48
2022-09-28T05:49:29.487Z,97594.55
2022-09-28T05:50:02.770Z,97592.22
2022-09-28T05:50:36.111Z,97591.03
2022-09-28T05:51:10.486Z,97595.17
2022-09-28T05:51:43.499Z,97594.02
2022-09-28T05:52:16.597Z,97591.66
2022-09-28T05:53:01.927Z,97592.73
2022-09-28T05:53:35.039Z,97592.72
2022-09-28T05:54:09.070Z,97593.48
2022-09-28T05:54:42.280Z,97597.33
2022-09-28T05:55:15.399Z,97596.57
2022-09-28T05:55:48.937Z,97594.09
2022-09-28T05:56:22.668Z,97598.34
2022-09-28T05:56:55.817Z,97597.98
2022-09-28T05:57:30.385Z,97597.00
2022-09-28T05:58:06.863Z,97596.45
2022-09-28T05:58:39.987Z,97597.68
2022-09-28T05:59:13.789Z,97599.59
2022-09-28T05:59:46.844Z,97602.04
2022-09-28T06:00:20.326Z,97603.27
2022-09-28T06:00:57.086Z,97603.14
2022-09-28T06:01:30.564Z,97606.31
2022-09-28T06:02:04.881Z,97607.80
2022-09-28T06:02:38.138Z,97612.38
2022-09-28T06:03:14.431Z,97611.95
2022-09-28T06:03:47.550Z,97613.73
2022-09-28T06:04:21.174Z,97615.27
2022-09-28T06:04:54.352Z,97613.94
2022-09-28T06:05:29.336Z,97612.96
2022-09-28T06:06:02.971Z,97613.64
2022-09-28T06:06:37.037Z,97608.74
2022-09-28T06:07:10.289Z,97610.89
2022-09-28T06:07:43.705Z,97611.90
2022-09-28T06:08:17.170Z,97611.90
2022-09-28T06:08:50.353Z,97614.27
2022-09-28T06:09:26.550Z,97614.36
2022-09-28T06:10:00.312Z,97611.20
2022-09-28T06:10:34.561Z,97614.34
2022-09-28T06:11:07.753Z,97613.70
2022-09-28T06:11:40.919Z,97615.89
2022-09-28T06:12:16.114Z,97611.08
2022-09-28T06:12:53.354Z,97615.13
2022-09-28T06:13:28.034Z,97613.74
2022-09-28T06:14:01.123Z,97613.31
2022-09-28T06:14:34.552Z,97613.35
2022-09-28T06:15:08.418Z,97611.13
2022-09-28T06:15:43.083Z,97605.62
2022-09-28T06:16:17.154Z,97607.95
2022-09-28T06:16:50.519Z,97609.44
2022-09-28T06:17:23.723Z,97605.23
2022-09-28T06:18:01.245Z,97604.98
2022-09-28T06:18:34.753Z,97604.52
2022-09-28T06:19:12.224Z,97604.25
2022-09-28T06:19:45.691Z,97603.73
2022-09-28T06:20:18.881Z,97607.73
2022-09-28T06:20:52.474Z,97608.24
2022-09-28T06:21:25.579Z,97607.84
2022-09-28T06:21:59.538Z,97606.63
2022-09-28T06:22:32.719Z,97611.04
2022-09-28T06:23:05.900Z,97611.12
2022-09-28T06:23:40.509Z,97612.39
2022-09-28T06:24:14.348Z,97610.92
2022-09-28T06:24:47.448Z,97611.75
2022-09-28T06:25:21.957Z,97610.69
2022-09-28T06:25:55.061Z,97611.11
2022-09-28T06:26:28.150Z,97612.02
2022-09-28T06:27:01.297Z,97613.06
2022-09-28T06:27:34.681Z,97611.65
2022-09-28T06:28:11.449Z,97609.21
2022-09-28T06:28:44.649Z,97606.80
2022-09-28T06:29:19.612Z,97607.84
2022-09-28T06:29:53.707Z,97607.73
2022-09-28T06:30:29.330Z,97607.59
2022-09-28T06:31:02.650Z,97608.09
2022-09-28T06:31:36.019Z,97606.23
2022-09-28T06:32:09.038Z,97608.91
2022-09-28T06:32:42.319Z,97610.10
2022-09-28T06:33:16.508Z,97605.48
2022-09-28T06:33:51.189Z,97604.73
2022-09-28T06:34:25.057Z,97605.86
2022-09-28T06:34:58.197Z,97603.02
2022-09-28T06:35:32.329Z,97607.13
2022-09-28T06:36:05.522Z,97609.41
2022-09-28T06:36:39.677Z,97604.02
2022-09-28T06:37:12.842Z,97608.75
2022-09-28T06:37:45.933Z,97611.10
2022-09-28T06:38:19.867Z,97611.88
2022-09-28T06:38:52.931Z,97612.18
2022-09-28T06:39:26.140Z,97613.89
2022-09-28T06:39:59.287Z,97615.77
2022-09-28T06:40:34.036Z,97618.31
2022-09-28T06:41:07.250Z,97616.30
2022-09-28T06:41:40.534Z,97618.81
2022-09-28T06:42:13.983Z,97621.84
2022-09-28T06:43:02.251Z,97620.36
2022-09-28T06:43:35.434Z,97622.48
2022-09-28T06:44:08.610Z,97623.29
2022-09-28T06:44:41.698Z,97622.83
2022-09-28T06:45:14.851Z,97622.09
2022-09-28T06:45:52.750Z,97620.88
2022-09-28T06:46:25.960Z,97620.46
2022-09-28T06:46:59.058Z,97623.35
2022-09-28T06:47:33.680Z,97621.89
2022-09-28T06:48:07.955Z,97625.10
2022-09-28T06:48:41.267Z,97625.27
2022-09-28T06:49:19.215Z,97625.87
2022-09-28T06:49:55.664Z,97623.95
2022-09-28T06:50:34.658Z,97630.04
2022-09-28T06:51:07.916Z,97631.84
2022-09-28T06:51:41.110Z,97630.86
2022-09-28T06:52:14.550Z,97631.69
2022-09-28T06:52:53.339Z,97631.92
2022-09-28T06:53:28.729Z,97634.89
2022-09-28T06:54:01.666Z,97631.23
2022-09-28T06:54:35.273Z,97631.27
2022-09-28T06:55:08.451Z,97632.22
2022-09-28T06:55:44.328Z,97632.59
2022-09-28T06:56:18.331Z,97629.20
2022-09-28T06:56:55.266Z,97629.19
2022-09-28T06:57:28.392Z,97632.56
2022-09-28T06:58:04.770Z,97632.73
2022-09-28T06:58:38.106Z,97636.05
2022-09-28T06:59:11.390Z,97639.21
2022-09-28T06:59:44.524Z,97640.00
2022-09-28T07:00:17.549Z,97640.09
2022-09-28T07:00:52.112Z,97639.40
2022-09-28T07:01:25.473Z,97640.89
2022-09-28T07:01:58.775Z,97642.52
2022-09-28T07:02:32.337Z,97640.77
2022-09-28T07:03:08.388Z,97643.32
2022-09-28T07:03:41.559Z,97642.33
2022-09-28T07:04:14.713Z,97642.45
2022-09-28T07:04:47.874Z,97644.59
2022-09-28T07:05:26.874Z,97646.08
2022-09-28T07:06:00.155Z,97647.09
2022-09-28T07:06:33.424Z,97643.63
2022-09-28T07:07:09.351Z,97649.13
2022-09-28T07:07:44.975Z,97642.97
2022-09-28T07:08:18.710Z,97642.42
2022-09-28T07:09:00.008Z,97647.41
2022-09-28T07:09:46.480Z,97645.42
2022-09-28T07:10:30.584Z,97646.86
2022-09-28T07:11:07.978Z,97647.81
2022-09-28T07:11:41.196Z,97649.60
2022-09-28T07:12:14.206Z,97650.24
2022-09-28T07:12:48.305Z,97651.33
2022-09-28T07:13:47.619Z,97650.79
2022-09-28T07:14:29.042Z,97648.14
2022-09-28T07:15:08.547Z,97649.98
2022-09-28T07:15:43.650Z,97645.16
2022-09-28T07:16:16.883Z,97648.45
2022-09-28T07:17:11.604Z,97647.79
2022-09-28T07:17:56.367Z,97654.98
2022-09-28T07:18:33.894Z,97655.14
2022-09-28T07:19:07.052Z,97655.17